Time,TemperatureF,DewpointF,PressureIn,WindDirection,WindDirectionDegrees,WindSpeedMPH,WindSpeedGustMPH,Humidity,HourlyPrecipIn,Conditions,Clouds,dailyrainin,SoftwareType,DateUTC
2013-01-16 00:05:00,37.0,21.0,30.12,West,270,14.0,25.0,52,0.00,,,-99.99,Weather View 32 v70,2013-01-16 07:05:00,
2013-01-16 00:14:00,36.0,20.5,30.12,West,270,15.0,25.0,53,0.00,,,-99.99,Weather View 32 v70,2013-01-16 07:14:00,
2013-01-16 00:19:00,36.0,21.0,30.12,WNW,292,18.0,25.0,54,0.00,,,-99.99,Weather View 32 v70,2013-01-16 07:19:00,
2013-01-16 00:24:00,37.0,21.0,30.13,West,270,13.0,27.0,52,0.00,,,-99.99,Weather View 32 v70,2013-01-16 07:24:00,
2013-01-16 00:29:00,36.0,20.5,30.13,West,270,18.0,27.0,53,0.00,,,-99.99,Weather View 32 v70,2013-01-16 07:29:00,
2013-01-16 00:34:00,36.0,20.5,30.13,WNW,292,15.0,27.0,53,0.00,,,-99.99,Weather View 32 v70,2013-01-16 07:34:00,
2013-01-16 00:39:00,36.0,21.0,30.13,WNW,292,14.0,27.0,54,0.00,,,-99.99,Weather View 32 v70,2013-01-16 07:39:00,
2013-01-16 00:44:00,35.0,20.5,30.14,WNW,292,14.0,27.0,55,0.00,,,-99.99,Weather View 32 v70,2013-01-16 07:44:00,
2013-01-16 00:49:00,34.0,19.9,30.14,WNW,292,13.0,27.0,56,0.00,,,-99.99,Weather View 32 v70,2013-01-16 07:49:00,
2013-01-16 00:54:00,34.0,20.4,30.14,WNW,292,11.0,27.0,57,0.00,,,-99.99,Weather View 32 v70,2013-01-16 07:54:00,
2013-01-16 00:59:00,35.0,20.9,30.14,West,270,15.0,27.0,56,0.00,,,-99.99,Weather View 32 v70,2013-01-16 07:59:00,
2013-01-16 01:05:00,35.0,20.5,30.14,West,270,15.0,27.0,55,0.00,,,-99.99,Weather View 32 v70,2013-01-16 08:05:00,
2013-01-16 01:14:00,35.0,20.5,30.14,West,270,15.0,27.0,55,0.00,,,-99.99,Weather View 32 v70,2013-01-16 08:14:00,
2013-01-16 01:19:00,35.0,20.9,30.14,West,270,22.0,27.0,56,0.00,,,-99.99,Weather View 32 v70,2013-01-16 08:19:00,
2013-01-16 01:24:00,36.0,21.0,30.14,West,270,18.0,27.0,54,0.00,,,-99.99,Weather View 32 v70,2013-01-16 08:24:00,
2013-01-16 01:34:00,35.0,20.5,30.15,WNW,292,12.0,27.0,55,0.00,,,-99.99,Weather View 32 v70,2013-01-16 08:34:00,
2013-01-16 01:39:00,34.0,20.8,30.15,NW,315,10.0,27.0,58,0.00,,,-99.99,Weather View 32 v70,2013-01-16 08:39:00,
2013-01-16 01:44:00,33.0,20.2,30.15,NW,315,9.0,27.0,59,0.00,,,-99.99,Weather View 32 v70,2013-01-16 08:44:00,
2013-01-16 01:49:00,33.0,20.6,30.15,NW,315,8.0,27.0,60,0.00,,,-99.99,Weather View 32 v70,2013-01-16 08:49:00,
2013-01-16 01:54:00,32.0,20.4,30.16,NW,315,8.0,27.0,62,0.00,,,-99.99,Weather View 32 v70,2013-01-16 08:54:00,
2013-01-16 01:59:00,32.0,20.4,30.16,NW,315,10.0,27.0,62,0.00,,,-99.99,Weather View 32 v70,2013-01-16 08:59:00,
2013-01-16 02:04:00,32.0,20.4,30.16,NNW,337,14.0,27.0,62,0.00,,,-99.99,Weather View 32 v70,2013-01-16 09:04:00,
2013-01-16 02:09:00,32.0,19.7,30.16,NNW,337,13.0,27.0,60,0.00,,,-99.99,Weather View 32 v70,2013-01-16 09:09:00,
2013-01-16 02:14:00,33.0,20.6,30.16,NNW,337,15.0,27.0,60,0.00,,,-99.99,Weather View 32 v70,2013-01-16 09:14:00,
2013-01-16 02:19:00,33.0,20.6,30.16,NNW,337,14.0,27.0,60,0.00,,,-99.99,Weather View 32 v70,2013-01-16 09:19:00,
2013-01-16 02:24:00,33.0,20.6,30.16,NNW,337,12.0,26.0,60,0.00,,,-99.99,Weather View 32 v70,2013-01-16 09:24:00,
2013-01-16 02:29:00,33.0,20.6,30.16,NNW,337,11.0,23.0,60,0.00,,,-99.99,Weather View 32 v70,2013-01-16 09:29:00,
2013-01-16 02:34:00,32.0,20.1,30.17,NNW,337,9.0,19.0,61,0.00,,,-99.99,Weather View 32 v70,2013-01-16 09:34:00,
2013-01-16 02:39:00,32.0,20.4,30.17,NW,315,7.0,19.0,62,0.00,,,-99.99,Weather View 32 v70,2013-01-16 09:39:00,
2013-01-16 02:44:00,31.0,19.5,30.16,NW,315,5.0,19.0,62,0.00,,,-99.99,Weather View 32 v70,2013-01-16 09:44:00,
2013-01-16 02:49:00,31.0,19.5,30.16,NW,315,6.0,19.0,62,0.00,,,-99.99,Weather View 32 v70,2013-01-16 09:49:00,
2013-01-16 02:54:00,30.0,18.6,30.17,NW,315,5.0,19.0,62,0.00,,,-99.99,Weather View 32 v70,2013-01-16 09:54:00,
2013-01-16 02:59:00,29.0,18.3,30.17,NW,315,4.0,19.0,64,0.00,,,-99.99,Weather View 32 v70,2013-01-16 09:59:00,
2013-01-16 03:06:00,28.0,17.8,30.17,NW,315,3.0,19.0,65,0.00,,,-99.99,Weather View 32 v70,2013-01-16 10:06:00,
2013-01-16 03:14:00,28.0,18.5,30.17,NW,315,5.0,18.0,67,0.00,,,-99.99,Weather View 32 v70,2013-01-16 10:14:00,
2013-01-16 03:19:00,29.0,19.8,30.17,NW,315,7.0,16.0,68,0.00,,,-99.99,Weather View 32 v70,2013-01-16 10:19:00,
2013-01-16 03:24:00,30.0,20.4,30.18,NW,315,7.0,13.0,67,0.00,,,-99.99,Weather View 32 v70,2013-01-16 10:24:00,
2013-01-16 03:29:00,30.0,19.7,30.18,NW,315,7.0,13.0,65,0.00,,,-99.99,Weather View 32 v70,2013-01-16 10:29:00,
2013-01-16 03:39:00,28.0,18.8,30.17,NW,315,7.0,10.0,68,0.00,,,-99.99,Weather View 32 v70,2013-01-16 10:39:00,
2013-01-16 03:49:00,34.0,22.3,30.17,West,270,13.0,16.0,62,0.00,,,-99.99,Weather View 32 v70,2013-01-16 10:49:00,
2013-01-16 03:54:00,37.0,22.7,30.16,WNW,292,17.0,20.0,56,0.00,,,-99.99,Weather View 32 v70,2013-01-16 10:54:00,
2013-01-16 03:59:00,38.0,21.5,30.16,West,270,15.0,20.0,51,0.00,,,-99.99,Weather View 32 v70,2013-01-16 10:59:00,
2013-01-16 04:07:00,38.0,21.5,30.15,WNW,292,15.0,20.0,51,0.00,,,-99.99,Weather View 32 v70,2013-01-16 11:07:00,
2013-01-16 04:14:00,37.0,21.9,30.15,NW,315,9.0,20.0,54,0.00,,,-99.99,Weather View 32 v70,2013-01-16 11:14:00,
2013-01-16 04:19:00,35.0,20.9,30.15,WNW,292,9.0,20.0,56,0.00,,,-99.99,Weather View 32 v70,2013-01-16 11:19:00,
2013-01-16 04:24:00,34.0,20.8,30.16,NW,315,6.0,20.0,58,0.00,,,-99.99,Weather View 32 v70,2013-01-16 11:24:00,
2013-01-16 04:29:00,33.0,20.6,30.16,West,270,8.0,20.0,60,0.00,,,-99.99,Weather View 32 v70,2013-01-16 11:29:00,
2013-01-16 04:34:00,34.0,21.6,30.15,WNW,292,10.0,20.0,60,0.00,,,-99.99,Weather View 32 v70,2013-01-16 11:34:00,
2013-01-16 04:39:00,33.0,21.4,30.15,West,270,9.0,20.0,62,0.00,,,-99.99,Weather View 32 v70,2013-01-16 11:39:00,
2013-01-16 04:44:00,35.0,21.7,30.16,West,270,8.0,20.0,58,0.00,,,-99.99,Weather View 32 v70,2013-01-16 11:44:00,
2013-01-16 04:59:00,36.0,21.0,30.15,WNW,292,12.0,19.0,54,0.00,,,-99.99,Weather View 32 v70,2013-01-16 11:59:00,
2013-01-16 05:04:00,37.0,21.0,30.15,WNW,292,18.0,19.0,52,0.00,,,-99.99,Weather View 32 v70,2013-01-16 12:04:00,
2013-01-16 05:09:00,37.0,20.5,30.15,West,270,13.0,21.0,51,0.00,,,-99.99,Weather View 32 v70,2013-01-16 12:09:00,
2013-01-16 05:14:00,37.0,20.5,30.14,West,270,18.0,21.0,51,0.00,,,-99.99,Weather View 32 v70,2013-01-16 12:14:00,
2013-01-16 05:19:00,37.0,20.5,30.14,West,270,15.0,21.0,51,0.00,,,-99.99,Weather View 32 v70,2013-01-16 12:19:00,
2013-01-16 05:24:00,37.0,20.5,30.14,WNW,292,14.0,21.0,51,0.00,,,-99.99,Weather View 32 v70,2013-01-16 12:24:00,
2013-01-16 05:29:00,37.0,20.5,30.14,West,270,14.0,21.0,51,0.00,,,-99.99,Weather View 32 v70,2013-01-16 12:29:00,
2013-01-16 05:34:00,37.0,20.5,30.15,WNW,292,10.0,21.0,51,0.00,,,-99.99,Weather View 32 v70,2013-01-16 12:34:00,
2013-01-16 05:39:00,37.0,20.5,30.15,West,270,17.0,21.0,51,0.00,,,-99.99,Weather View 32 v70,2013-01-16 12:39:00,
2013-01-16 05:44:00,37.0,20.5,30.15,WNW,292,13.0,21.0,51,0.00,,,-99.99,Weather View 32 v70,2013-01-16 12:44:00,
2013-01-16 05:49:00,36.0,19.6,30.15,West,270,9.0,21.0,51,0.00,,,-99.99,Weather View 32 v70,2013-01-16 12:49:00,
2013-01-16 05:54:00,36.0,20.1,30.16,WNW,292,9.0,21.0,52,0.00,,,-99.99,Weather View 32 v70,2013-01-16 12:54:00,
2013-01-16 05:59:00,36.0,20.1,30.16,West,270,6.0,21.0,52,0.00,,,-99.99,Weather View 32 v70,2013-01-16 12:59:00,
2013-01-16 06:08:00,36.0,20.1,30.16,WNW,292,10.0,21.0,52,0.00,,,-99.99,Weather View 32 v70,2013-01-16 13:08:00,
2013-01-16 06:14:00,36.0,20.5,30.17,West,270,7.0,21.0,53,0.00,,,-99.99,Weather View 32 v70,2013-01-16 13:14:00,
2013-01-16 06:19:00,36.0,20.1,30.17,West,270,11.0,21.0,52,0.00,,,-99.99,Weather View 32 v70,2013-01-16 13:19:00,
2013-01-16 06:24:00,36.0,19.6,30.17,West,270,11.0,21.0,51,0.00,,,-99.99,Weather View 32 v70,2013-01-16 13:24:00,
2013-01-16 06:29:00,36.0,19.6,30.17,West,270,10.0,21.0,51,0.00,,,-99.99,Weather View 32 v70,2013-01-16 13:29:00,
2013-01-16 06:34:00,36.0,19.6,30.16,West,270,11.0,20.0,51,0.00,,,-99.99,Weather View 32 v70,2013-01-16 13:34:00,
2013-01-16 06:39:00,36.0,20.1,30.16,West,270,10.0,20.0,52,0.00,,,-99.99,Weather View 32 v70,2013-01-16 13:39:00,
2013-01-16 06:44:00,36.0,20.1,30.16,West,270,9.0,20.0,52,0.00,,,-99.99,Weather View 32 v70,2013-01-16 13:44:00,
2013-01-16 06:54:00,36.0,19.6,30.16,West,270,12.0,17.0,51,0.00,,,-99.99,Weather View 32 v70,2013-01-16 13:54:00,
2013-01-16 06:59:00,36.0,19.6,30.16,West,270,11.0,18.0,51,0.00,,,-99.99,Weather View 32 v70,2013-01-16 13:59:00,
2013-01-16 07:04:00,37.0,20.5,30.17,WNW,292,20.0,20.0,51,0.00,,,-99.99,Weather View 32 v70,2013-01-16 14:04:00,
2013-01-16 07:09:00,37.0,20.5,30.17,West,270,10.0,22.0,51,0.00,,,-99.99,Weather View 32 v70,2013-01-16 14:09:00,
2013-01-16 07:14:00,36.0,19.6,30.17,WNW,292,6.0,22.0,51,0.00,,,-99.99,Weather View 32 v70,2013-01-16 14:14:00,
2013-01-16 07:19:00,36.0,19.6,30.17,WNW,292,10.0,22.0,51,0.00,,,-99.99,Weather View 32 v70,2013-01-16 14:19:00,
2013-01-16 07:24:00,36.0,20.1,30.17,West,270,6.0,22.0,52,0.00,,,-99.99,Weather View 32 v70,2013-01-16 14:24:00,
2013-01-16 07:29:00,35.0,20.0,30.17,WNW,292,7.0,22.0,54,0.00,,,-99.99,Weather View 32 v70,2013-01-16 14:29:00,
2013-01-16 07:34:00,35.0,20.0,30.17,WNW,292,0.0,22.0,54,0.00,,,-99.99,Weather View 32 v70,2013-01-16 14:34:00,
2013-01-16 07:39:00,35.0,20.9,30.17,NW,315,8.0,22.0,56,0.00,,,-99.99,Weather View 32 v70,2013-01-16 14:39:00,
2013-01-16 07:44:00,36.0,21.0,30.17,WNW,292,8.0,22.0,54,0.00,,,-99.99,Weather View 32 v70,2013-01-16 14:44:00,
2013-01-16 07:49:00,38.0,21.5,30.17,WNW,292,14.0,22.0,51,0.00,,,-99.99,Weather View 32 v70,2013-01-16 14:49:00,
2013-01-16 07:54:00,38.0,20.5,30.16,West,270,16.0,22.0,49,0.00,,,-99.99,Weather View 32 v70,2013-01-16 14:54:00,
2013-01-16 07:59:00,39.0,20.5,30.16,West,270,19.0,22.0,47,0.00,,,-99.99,Weather View 32 v70,2013-01-16 14:59:00,
2013-01-16 08:04:00,39.0,20.5,30.16,West,270,13.0,22.0,47,0.00,,,-99.99,Weather View 32 v70,2013-01-16 15:04:00,
2013-01-16 08:09:00,39.0,20.5,30.16,West,270,11.0,22.0,47,0.00,,,-99.99,Weather View 32 v70,2013-01-16 15:09:00,
2013-01-16 08:14:00,39.0,20.9,30.16,West,270,11.0,22.0,48,0.00,,,-99.99,Weather View 32 v70,2013-01-16 15:14:00,
2013-01-16 08:19:00,39.0,20.9,30.16,West,270,9.0,22.0,48,0.00,,,-99.99,Weather View 32 v70,2013-01-16 15:19:00,
2013-01-16 08:24:00,40.0,21.4,30.16,West,270,11.0,22.0,47,0.00,,,-99.99,Weather View 32 v70,2013-01-16 15:24:00,
2013-01-16 08:29:00,40.0,20.9,30.16,West,270,13.0,22.0,46,0.00,,,-99.99,Weather View 32 v70,2013-01-16 15:29:00,
2013-01-16 08:34:00,40.0,20.9,30.17,West,270,17.0,23.0,46,0.00,,,-99.99,Weather View 32 v70,2013-01-16 15:34:00,
2013-01-16 08:39:00,39.0,19.9,30.17,WNW,292,15.0,23.0,46,0.00,,,-99.99,Weather View 32 v70,2013-01-16 15:39:00,
2013-01-16 08:44:00,38.0,19.5,30.17,WNW,292,19.0,23.0,47,0.00,,,-99.99,Weather View 32 v70,2013-01-16 15:44:00,
2013-01-16 08:49:00,38.0,20.0,30.17,West,270,12.0,23.0,48,0.00,,,-99.99,Weather View 32 v70,2013-01-16 15:49:00,
2013-01-16 08:54:00,39.0,20.5,30.18,WNW,292,12.0,23.0,47,0.00,,,-99.99,Weather View 32 v70,2013-01-16 15:54:00,
2013-01-16 08:59:00,40.0,20.9,30.18,WNW,292,13.0,23.0,46,0.00,,,-99.99,Weather View 32 v70,2013-01-16 15:59:00,
2013-01-16 09:04:00,40.0,20.9,30.18,WNW,292,11.0,23.0,46,0.00,,,-99.99,Weather View 32 v70,2013-01-16 16:04:00,
2013-01-16 09:10:00,41.0,20.7,30.18,WNW,292,19.0,23.0,44,0.00,,,-99.99,Weather View 32 v70,2013-01-16 16:10:00,
2013-01-16 09:19:00,41.0,20.2,30.18,WNW,292,17.0,27.0,43,0.00,,,-99.99,Weather View 32 v70,2013-01-16 16:19:00,
2013-01-16 09:24:00,41.0,20.7,30.18,WNW,292,13.0,27.0,44,0.00,,,-99.99,Weather View 32 v70,2013-01-16 16:24:00,
2013-01-16 09:29:00,41.0,21.8,30.18,WNW,292,5.0,27.0,46,0.00,,,-99.99,Weather View 32 v70,2013-01-16 16:29:00,
2013-01-16 09:34:00,40.0,20.3,30.18,West,270,18.0,27.0,45,0.00,,,-99.99,Weather View 32 v70,2013-01-16 16:34:00,
2013-01-16 09:39:00,41.0,20.7,30.18,West,270,13.0,27.0,44,0.00,,,-99.99,Weather View 32 v70,2013-01-16 16:39:00,
2013-01-16 09:44:00,41.0,20.7,30.19,West,270,10.0,27.0,44,0.00,,,-99.99,Weather View 32 v70,2013-01-16 16:44:00,
2013-01-16 09:49:00,42.0,21.6,30.19,WNW,292,9.0,27.0,44,0.00,,,-99.99,Weather View 32 v70,2013-01-16 16:49:00,
2013-01-16 09:54:00,42.0,21.6,30.20,West,270,10.0,27.0,44,0.00,,,-99.99,Weather View 32 v70,2013-01-16 16:54:00,
2013-01-16 09:59:00,43.0,22.0,30.20,West,270,8.0,27.0,43,0.00,,,-99.99,Weather View 32 v70,2013-01-16 16:59:00,
2013-01-16 10:09:00,44.0,21.8,30.19,West,270,9.0,27.0,41,0.00,,,-99.99,Weather View 32 v70,2013-01-16 17:09:00,
2013-01-16 10:14:00,45.0,23.3,30.17,West,270,10.0,27.0,42,0.00,,,-99.99,Weather View 32 v70,2013-01-16 17:14:00,
2013-01-16 10:19:00,45.0,23.8,30.17,West,270,7.0,27.0,43,0.00,,,-99.99,Weather View 32 v70,2013-01-16 17:19:00,
2013-01-16 10:24:00,45.0,23.3,30.18,WSW,247,8.0,23.0,42,0.00,,,-99.99,Weather View 32 v70,2013-01-16 17:24:00,
2013-01-16 10:29:00,45.0,23.3,30.18,West,270,13.0,23.0,42,0.00,,,-99.99,Weather View 32 v70,2013-01-16 17:29:00,
2013-01-16 10:34:00,46.0,23.6,30.18,WSW,247,7.0,23.0,41,0.00,,,-99.99,Weather View 32 v70,2013-01-16 17:34:00,
2013-01-16 10:39:00,46.0,23.0,30.18,WSW,247,14.0,21.0,40,0.00,,,-99.99,Weather View 32 v70,2013-01-16 17:39:00,
2013-01-16 10:44:00,46.0,23.0,30.18,West,270,11.0,19.0,40,0.00,,,-99.99,Weather View 32 v70,2013-01-16 17:44:00,
2013-01-16 10:54:00,47.0,22.7,30.17,West,270,16.0,19.0,38,0.00,,,-99.99,Weather View 32 v70,2013-01-16 17:54:00,
2013-01-16 10:59:00,48.0,22.9,30.17,WNW,292,10.0,23.0,37,0.00,,,-99.99,Weather View 32 v70,2013-01-16 17:59:00,
2013-01-16 11:04:00,48.0,22.9,30.16,West,270,14.0,23.0,37,0.00,,,-99.99,Weather View 32 v70,2013-01-16 18:04:00,
2013-01-16 11:09:00,48.0,22.9,30.16,WNW,292,15.0,23.0,37,0.00,,,-99.99,Weather View 32 v70,2013-01-16 18:09:00,
2013-01-16 11:14:00,48.0,22.9,30.16,West,270,13.0,23.0,37,0.00,,,-99.99,Weather View 32 v70,2013-01-16 18:14:00,
2013-01-16 11:19:00,49.0,23.8,30.16,West,270,10.0,23.0,37,0.00,,,-99.99,Weather View 32 v70,2013-01-16 18:19:00,
2013-01-16 11:24:00,49.0,23.8,30.16,WNW,292,8.0,23.0,37,0.00,,,-99.99,Weather View 32 v70,2013-01-16 18:24:00,
2013-01-16 11:29:00,50.0,23.4,30.16,WNW,292,17.0,23.0,35,0.00,,,-99.99,Weather View 32 v70,2013-01-16 18:29:00,
2013-01-16 11:34:00,50.0,23.4,30.16,NW,315,17.0,23.0,35,0.00,,,-99.99,Weather View 32 v70,2013-01-16 18:34:00,
2013-01-16 11:39:00,50.0,22.7,30.16,West,270,17.0,23.0,34,0.00,,,-99.99,Weather View 32 v70,2013-01-16 18:39:00,
2013-01-16 11:44:00,51.0,22.9,30.15,West,270,12.0,26.0,33,0.00,,,-99.99,Weather View 32 v70,2013-01-16 18:44:00,
2013-01-16 11:49:00,51.0,22.9,30.15,West,270,10.0,26.0,33,0.00,,,-99.99,Weather View 32 v70,2013-01-16 18:49:00,
2013-01-16 11:54:00,51.0,22.9,30.15,West,270,18.0,26.0,33,0.00,,,-99.99,Weather View 32 v70,2013-01-16 18:54:00,
2013-01-16 11:59:00,52.0,23.7,30.15,WNW,292,14.0,26.0,33,0.00,,,-99.99,Weather View 32 v70,2013-01-16 18:59:00,
2013-01-16 12:04:00,52.0,23.0,30.14,West,270,16.0,26.0,32,0.00,,,-99.99,Weather View 32 v70,2013-01-16 19:04:00,
2013-01-16 12:09:00,51.0,22.1,30.14,West,270,14.0,26.0,32,0.00,,,-99.99,Weather View 32 v70,2013-01-16 19:09:00,
2013-01-16 12:14:00,51.0,22.1,30.14,West,270,15.0,26.0,32,0.00,,,-99.99,Weather View 32 v70,2013-01-16 19:14:00,
2013-01-16 12:19:00,52.0,23.0,30.14,West,270,17.0,26.0,32,0.00,,,-99.99,Weather View 32 v70,2013-01-16 19:19:00,
2013-01-16 12:24:00,51.0,21.4,30.14,WNW,292,15.0,26.0,31,0.00,,,-99.99,Weather View 32 v70,2013-01-16 19:24:00,
2013-01-16 12:29:00,52.0,23.0,30.14,WNW,292,13.0,29.0,32,0.00,,,-99.99,Weather View 32 v70,2013-01-16 19:29:00,
2013-01-16 12:34:00,52.0,23.0,30.14,WNW,292,19.0,29.0,32,0.00,,,-99.99,Weather View 32 v70,2013-01-16 19:34:00,
2013-01-16 12:39:00,52.0,22.2,30.14,West,270,20.0,29.0,31,0.00,,,-99.99,Weather View 32 v70,2013-01-16 19:39:00,
2013-01-16 12:44:00,52.0,23.0,30.14,WNW,292,13.0,29.0,32,0.00,,,-99.99,Weather View 32 v70,2013-01-16 19:44:00,
2013-01-16 12:49:00,52.0,22.2,30.14,NW,315,19.0,29.0,31,0.00,,,-99.99,Weather View 32 v70,2013-01-16 19:49:00,
2013-01-16 12:54:00,52.0,22.2,30.14,West,270,10.0,29.0,31,0.00,,,-99.99,Weather View 32 v70,2013-01-16 19:54:00,
2013-01-16 12:59:00,51.0,21.4,30.14,WNW,292,17.0,29.0,31,0.00,,,-99.99,Weather View 32 v70,2013-01-16 19:59:00,
2013-01-16 13:04:00,51.0,22.1,30.14,West,270,13.0,29.0,32,0.00,,,-99.99,Weather View 32 v70,2013-01-16 20:04:00,
2013-01-16 13:09:00,51.0,21.4,30.14,West,270,20.0,29.0,31,0.00,,,-99.99,Weather View 32 v70,2013-01-16 20:09:00,
2013-01-16 13:14:00,51.0,22.1,30.14,WNW,292,18.0,29.0,32,0.00,,,-99.99,Weather View 32 v70,2013-01-16 20:14:00,
2013-01-16 13:19:00,51.0,22.1,30.14,West,270,11.0,29.0,32,0.00,,,-99.99,Weather View 32 v70,2013-01-16 20:19:00,
2013-01-16 13:24:00,51.0,21.4,30.14,West,270,20.0,29.0,31,0.00,,,-99.99,Weather View 32 v70,2013-01-16 20:24:00,
2013-01-16 13:29:00,51.0,22.1,30.14,WNW,292,18.0,26.0,32,0.00,,,-99.99,Weather View 32 v70,2013-01-16 20:29:00,
2013-01-16 13:34:00,52.0,23.0,30.14,West,270,17.0,26.0,32,0.00,,,-99.99,Weather View 32 v70,2013-01-16 20:34:00,
2013-01-16 13:39:00,52.0,22.2,30.14,WNW,292,12.0,26.0,31,0.00,,,-99.99,Weather View 32 v70,2013-01-16 20:39:00,
2013-01-16 13:44:00,52.0,22.2,30.14,West,270,12.0,26.0,31,0.00,,,-99.99,Weather View 32 v70,2013-01-16 20:44:00,
2013-01-16 13:49:00,52.0,21.5,30.14,WNW,292,13.0,26.0,30,0.00,,,-99.99,Weather View 32 v70,2013-01-16 20:49:00,
2013-01-16 13:54:00,52.0,22.2,30.14,NW,315,20.0,26.0,31,0.00,,,-99.99,Weather View 32 v70,2013-01-16 20:54:00,
2013-01-16 13:59:00,52.0,22.2,30.14,NW,315,13.0,26.0,31,0.00,,,-99.99,Weather View 32 v70,2013-01-16 20:59:00,
2013-01-16 14:04:00,53.0,23.1,30.14,WNW,292,13.0,26.0,31,0.00,,,-99.99,Weather View 32 v70,2013-01-16 21:04:00,
2013-01-16 14:09:00,53.0,22.3,30.14,West,270,11.0,26.0,30,0.00,,,-99.99,Weather View 32 v70,2013-01-16 21:09:00,
2013-01-16 14:14:00,52.0,21.5,30.15,West,270,11.0,26.0,30,0.00,,,-99.99,Weather View 32 v70,2013-01-16 21:14:00,
2013-01-16 14:19:00,53.0,22.3,30.15,NW,315,13.0,26.0,30,0.00,,,-99.99,Weather View 32 v70,2013-01-16 21:19:00,
2013-01-16 14:24:00,53.0,21.5,30.14,NW,315,16.0,26.0,29,0.00,,,-99.99,Weather View 32 v70,2013-01-16 21:24:00,
2013-01-16 14:29:00,53.0,20.7,30.14,West,270,11.0,26.0,28,0.00,,,-99.99,Weather View 32 v70,2013-01-16 21:29:00,
2013-01-16 14:34:00,52.0,20.7,30.15,NW,315,10.0,26.0,29,0.00,,,-99.99,Weather View 32 v70,2013-01-16 21:34:00,
2013-01-16 14:39:00,52.0,20.7,30.15,WNW,292,13.0,26.0,29,0.00,,,-99.99,Weather View 32 v70,2013-01-16 21:39:00,
2013-01-16 14:44:00,52.0,21.5,30.15,NW,315,14.0,23.0,30,0.00,,,-99.99,Weather View 32 v70,2013-01-16 21:44:00,
2013-01-16 14:49:00,53.0,23.1,30.15,West,270,10.0,23.0,31,0.00,,,-99.99,Weather View 32 v70,2013-01-16 21:49:00,
2013-01-16 14:54:00,52.0,21.5,30.15,West,270,11.0,23.0,30,0.00,,,-99.99,Weather View 32 v70,2013-01-16 21:54:00,
2013-01-16 14:59:00,52.0,21.5,30.15,NW,315,13.0,22.0,30,0.00,,,-99.99,Weather View 32 v70,2013-01-16 21:59:00,
2013-01-16 15:04:00,52.0,21.5,30.16,WNW,292,13.0,22.0,30,0.00,,,-99.99,Weather View 32 v70,2013-01-16 22:04:00,
2013-01-16 15:13:00,52.0,21.5,30.16,NW,315,14.0,22.0,30,0.00,,,-99.99,Weather View 32 v70,2013-01-16 22:13:00,
2013-01-16 15:19:00,52.0,20.7,30.16,NW,315,14.0,22.0,29,0.00,,,-99.99,Weather View 32 v70,2013-01-16 22:19:00,
2013-01-16 15:24:00,52.0,21.5,30.16,NW,315,14.0,22.0,30,0.00,,,-99.99,Weather View 32 v70,2013-01-16 22:24:00,
2013-01-16 15:29:00,51.0,20.6,30.16,NW,315,10.0,24.0,30,0.00,,,-99.99,Weather View 32 v70,2013-01-16 22:29:00,
2013-01-16 15:34:00,51.0,20.6,30.17,NW,315,16.0,27.0,30,0.00,,,-99.99,Weather View 32 v70,2013-01-16 22:34:00,
2013-01-16 15:39:00,51.0,20.6,30.17,NW,315,11.0,27.0,30,0.00,,,-99.99,Weather View 32 v70,2013-01-16 22:39:00,
2013-01-16 15:49:00,50.0,19.7,30.17,West,270,14.0,27.0,30,0.00,,,-99.99,Weather View 32 v70,2013-01-16 22:49:00,
2013-01-16 15:59:00,50.0,21.2,30.18,NW,315,16.0,27.0,32,0.00,,,-99.99,Weather View 32 v70,2013-01-16 22:59:00,
2013-01-16 16:04:00,49.0,20.4,30.18,NW,315,14.0,27.0,32,0.00,,,-99.99,Weather View 32 v70,2013-01-16 23:04:00,
2013-01-16 16:09:00,49.0,21.1,30.18,NW,315,22.0,27.0,33,0.00,,,-99.99,Weather View 32 v70,2013-01-16 23:09:00,
2013-01-16 16:14:00,48.0,20.9,30.19,NNW,337,19.0,27.0,34,0.00,,,-99.99,Weather View 32 v70,2013-01-16 23:14:00,
2013-01-16 16:19:00,48.0,21.6,30.19,NW,315,23.0,27.0,35,0.00,,,-99.99,Weather View 32 v70,2013-01-16 23:19:00,
2013-01-16 16:24:00,46.0,21.1,30.19,NW,315,19.0,27.0,37,0.00,,,-99.99,Weather View 32 v70,2013-01-16 23:24:00,
2013-01-16 16:29:00,46.0,21.1,30.19,NW,315,21.0,27.0,37,0.00,,,-99.99,Weather View 32 v70,2013-01-16 23:29:00,
2013-01-16 16:34:00,45.0,20.3,30.20,NNW,337,15.0,25.0,37,0.00,,,-99.99,Weather View 32 v70,2013-01-16 23:34:00,
2013-01-16 16:39:00,45.0,20.3,30.20,NNW,337,12.0,25.0,37,0.00,,,-99.99,Weather View 32 v70,2013-01-16 23:39:00,
2013-01-16 16:44:00,44.0,20.0,30.21,North,360,12.0,25.0,38,0.00,,,-99.99,Weather View 32 v70,2013-01-16 23:44:00,
2013-01-16 16:49:00,42.0,19.4,30.21,NNW,337,18.0,25.0,40,0.00,,,-99.99,Weather View 32 v70,2013-01-16 23:49:00,
2013-01-16 16:54:00,42.0,20.0,30.21,NNW,337,17.0,25.0,41,0.00,,,-99.99,Weather View 32 v70,2013-01-16 23:54:00,
2013-01-16 16:59:00,41.0,19.6,30.21,NNW,337,19.0,25.0,42,0.00,,,-99.99,Weather View 32 v70,2013-01-16 23:59:00,
2013-01-16 17:09:00,41.0,19.6,30.21,NW,315,15.0,26.0,42,0.00,,,-99.99,Weather View 32 v70,2013-01-17 00:09:00,
2013-01-16 17:14:00,40.0,19.3,30.23,WNW,292,15.0,26.0,43,0.00,,,-99.99,Weather View 32 v70,2013-01-17 00:14:00,
2013-01-16 17:19:00,39.0,18.9,30.23,NW,315,13.0,26.0,44,0.00,,,-99.99,Weather View 32 v70,2013-01-17 00:19:00,
2013-01-16 17:24:00,39.0,18.9,30.24,NW,315,12.0,26.0,44,0.00,,,-99.99,Weather View 32 v70,2013-01-17 00:24:00,
2013-01-16 17:29:00,39.0,19.4,30.24,West,270,8.0,26.0,45,0.00,,,-99.99,Weather View 32 v70,2013-01-17 00:29:00,
2013-01-16 17:39:00,40.0,19.8,30.26,WNW,292,8.0,26.0,44,0.00,,,-99.99,Weather View 32 v70,2013-01-17 00:39:00,
2013-01-16 17:44:00,40.0,19.8,30.26,WNW,292,11.0,26.0,44,0.00,,,-99.99,Weather View 32 v70,2013-01-17 00:44:00,
2013-01-16 17:49:00,39.0,19.4,30.26,NW,315,11.0,26.0,45,0.00,,,-99.99,Weather View 32 v70,2013-01-17 00:49:00,
2013-01-16 17:54:00,38.0,19.0,30.26,NW,315,10.0,26.0,46,0.00,,,-99.99,Weather View 32 v70,2013-01-17 00:54:00,
2013-01-16 17:59:00,37.0,18.6,30.26,NW,315,10.0,26.0,47,0.00,,,-99.99,Weather View 32 v70,2013-01-17 00:59:00,
2013-01-16 18:04:00,36.0,17.2,30.27,NNW,337,6.0,26.0,46,0.00,,,-99.99,Weather View 32 v70,2013-01-17 01:04:00,
2013-01-16 18:09:00,35.0,16.8,30.27,North,360,5.0,24.0,47,0.00,,,-99.99,Weather View 32 v70,2013-01-17 01:09:00,
2013-01-16 18:15:00,34.0,16.8,30.27,North,360,6.0,20.0,49,0.00,,,-99.99,Weather View 32 v70,2013-01-17 01:15:00,
2013-01-16 18:24:00,33.0,17.7,30.28,NNW,337,7.0,19.0,53,0.00,,,-99.99,Weather View 32 v70,2013-01-17 01:24:00,
2013-01-16 18:29:00,33.0,18.2,30.28,NW,315,11.0,19.0,54,0.00,,,-99.99,Weather View 32 v70,2013-01-17 01:29:00,
2013-01-16 18:34:00,33.0,18.6,30.28,NW,315,8.0,19.0,55,0.00,,,-99.99,Weather View 32 v70,2013-01-17 01:34:00,
2013-01-16 18:39:00,35.0,19.1,30.28,NW,315,7.0,18.0,52,0.00,,,-99.99,Weather View 32 v70,2013-01-17 01:39:00,
2013-01-16 18:44:00,36.0,19.6,30.29,WNW,292,9.0,18.0,51,0.00,,,-99.99,Weather View 32 v70,2013-01-17 01:44:00,
2013-01-16 18:54:00,36.0,19.1,30.29,West,270,9.0,14.0,50,0.00,,,-99.99,Weather View 32 v70,2013-01-17 01:54:00,
2013-01-16 18:59:00,37.0,19.6,30.29,WNW,292,9.0,13.0,49,0.00,,,-99.99,Weather View 32 v70,2013-01-17 01:59:00,
2013-01-16 19:04:00,37.0,19.6,30.29,West,270,8.0,13.0,49,0.00,,,-99.99,Weather View 32 v70,2013-01-17 02:04:00,
2013-01-16 19:09:00,37.0,19.6,30.29,WNW,292,6.0,13.0,49,0.00,,,-99.99,Weather View 32 v70,2013-01-17 02:09:00,
2013-01-16 19:14:00,37.0,20.1,30.29,WNW,292,6.0,13.0,50,0.00,,,-99.99,Weather View 32 v70,2013-01-17 02:14:00,
2013-01-16 19:19:00,37.0,20.1,30.29,WNW,292,6.0,13.0,50,0.00,,,-99.99,Weather View 32 v70,2013-01-17 02:19:00,
2013-01-16 19:24:00,37.0,20.1,30.29,West,270,9.0,16.0,50,0.00,,,-99.99,Weather View 32 v70,2013-01-17 02:24:00,
2013-01-16 19:34:00,36.0,19.6,30.30,West,270,9.0,16.0,51,0.00,,,-99.99,Weather View 32 v70,2013-01-17 02:34:00,
2013-01-16 19:39:00,36.0,20.1,30.30,West,270,7.0,16.0,52,0.00,,,-99.99,Weather View 32 v70,2013-01-17 02:39:00,
2013-01-16 19:44:00,35.0,19.6,30.31,West,270,10.0,16.0,53,0.00,,,-99.99,Weather View 32 v70,2013-01-17 02:44:00,
2013-01-16 19:49:00,35.0,20.0,30.31,WNW,292,6.0,16.0,54,0.00,,,-99.99,Weather View 32 v70,2013-01-17 02:49:00,
2013-01-16 19:54:00,35.0,20.0,30.31,WNW,292,5.0,16.0,54,0.00,,,-99.99,Weather View 32 v70,2013-01-17 02:54:00,
2013-01-16 19:59:00,34.0,19.1,30.31,West,270,4.0,16.0,54,0.00,,,-99.99,Weather View 32 v70,2013-01-17 02:59:00,
2013-01-16 20:09:00,34.0,19.9,30.32,West,270,6.0,16.0,56,0.00,,,-99.99,Weather View 32 v70,2013-01-17 03:09:00,
2013-01-16 20:14:00,33.0,19.4,30.33,WNW,292,5.0,16.0,57,0.00,,,-99.99,Weather View 32 v70,2013-01-17 03:14:00,
2013-01-16 20:19:00,33.0,19.8,30.33,West,270,6.0,16.0,58,0.00,,,-99.99,Weather View 32 v70,2013-01-17 03:19:00,
2013-01-16 20:24:00,33.0,19.4,30.33,West,270,5.0,16.0,57,0.00,,,-99.99,Weather View 32 v70,2013-01-17 03:24:00,
2013-01-16 20:29:00,33.0,19.8,30.33,SW,225,5.0,15.0,58,0.00,,,-99.99,Weather View 32 v70,2013-01-17 03:29:00,
2013-01-16 20:34:00,32.0,19.3,30.33,WNW,292,8.0,13.0,59,0.00,,,-99.99,Weather View 32 v70,2013-01-17 03:34:00,
2013-01-16 20:39:00,33.0,20.2,30.33,West,270,4.0,13.0,59,0.00,,,-99.99,Weather View 32 v70,2013-01-17 03:39:00,
2013-01-16 20:44:00,33.0,19.8,30.34,West,270,3.0,13.0,58,0.00,,,-99.99,Weather View 32 v70,2013-01-17 03:44:00,
2013-01-16 20:49:00,32.0,18.9,30.34,West,270,2.0,13.0,58,0.00,,,-99.99,Weather View 32 v70,2013-01-17 03:49:00,
2013-01-16 20:54:00,32.0,19.3,30.34,West,270,7.0,11.0,59,0.00,,,-99.99,Weather View 32 v70,2013-01-17 03:54:00,
2013-01-16 21:04:00,32.0,18.9,30.34,West,270,4.0,10.0,58,0.00,,,-99.99,Weather View 32 v70,2013-01-17 04:04:00,
2013-01-16 21:09:00,31.0,18.7,30.34,WNW,292,7.0,10.0,60,0.00,,,-99.99,Weather View 32 v70,2013-01-17 04:09:00,
2013-01-16 21:14:00,30.0,17.8,30.35,WNW,292,5.0,10.0,60,0.00,,,-99.99,Weather View 32 v70,2013-01-17 04:14:00,
2013-01-16 21:19:00,30.0,18.2,30.35,WNW,292,5.0,10.0,61,0.00,,,-99.99,Weather View 32 v70,2013-01-17 04:19:00,
2013-01-16 21:29:00,30.0,17.8,30.35,WNW,292,1.0,10.0,60,0.00,,,-99.99,Weather View 32 v70,2013-01-17 04:29:00,
2013-01-16 21:34:00,29.0,18.0,30.36,SW,225,3.0,10.0,63,0.00,,,-99.99,Weather View 32 v70,2013-01-17 04:34:00,
2013-01-16 21:39:00,31.0,19.1,30.36,NW,315,8.0,11.0,61,0.00,,,-99.99,Weather View 32 v70,2013-01-17 04:39:00,
2013-01-16 21:44:00,31.0,18.7,30.36,WNW,292,4.0,11.0,60,0.00,,,-99.99,Weather View 32 v70,2013-01-17 04:44:00,
2013-01-16 21:49:00,30.0,17.8,30.36,NW,315,8.0,11.0,60,0.00,,,-99.99,Weather View 32 v70,2013-01-17 04:49:00,
2013-01-16 21:54:00,29.0,17.2,30.36,NW,315,6.0,11.0,61,0.00,,,-99.99,Weather View 32 v70,2013-01-17 04:54:00,
2013-01-16 21:59:00,29.0,18.0,30.36,NW,315,6.0,11.0,63,0.00,,,-99.99,Weather View 32 v70,2013-01-17 04:59:00,
2013-01-16 22:04:00,31.0,18.7,30.36,West,270,11.0,13.0,60,0.00,,,-99.99,Weather View 32 v70,2013-01-17 05:04:00,
2013-01-16 22:09:00,31.0,17.9,30.36,SSW,202,4.0,13.0,58,0.00,,,-99.99,Weather View 32 v70,2013-01-17 05:09:00,
2013-01-16 22:14:00,31.0,18.3,30.36,SW,225,7.0,13.0,59,0.00,,,-99.99,Weather View 32 v70,2013-01-17 05:14:00,
2013-01-16 22:17:00,31.0,18.3,30.36,SW,225,7.0,13.0,59,0.00,,,-99.99,Weather View 32 v70,2013-01-17 05:17:00,
2013-01-16 22:24:00,31.0,18.3,30.37,SW,225,3.0,13.0,59,0.00,,,-99.99,Weather View 32 v70,2013-01-17 05:24:00,
2013-01-16 22:29:00,30.0,17.4,30.37,SW,225,4.0,13.0,59,0.00,,,-99.99,Weather View 32 v70,2013-01-17 05:29:00,
2013-01-16 22:34:00,30.0,17.8,30.37,SW,225,4.0,13.0,60,0.00,,,-99.99,Weather View 32 v70,2013-01-17 05:34:00,
2013-01-16 22:39:00,31.0,17.9,30.37,WNW,292,8.0,13.0,58,0.00,,,-99.99,Weather View 32 v70,2013-01-17 05:39:00,
2013-01-16 22:44:00,31.0,17.5,30.37,WNW,292,7.0,13.0,57,0.00,,,-99.99,Weather View 32 v70,2013-01-17 05:44:00,
2013-01-16 22:54:00,31.0,17.5,30.37,WSW,247,4.0,13.0,57,0.00,,,-99.99,Weather View 32 v70,2013-01-17 05:54:00,
2013-01-16 22:59:00,31.0,17.5,30.37,West,270,8.0,13.0,57,0.00,,,-99.99,Weather View 32 v70,2013-01-17 05:59:00,
2013-01-16 23:04:00,31.0,17.5,30.37,West,270,6.0,13.0,57,0.00,,,-99.99,Weather View 32 v70,2013-01-17 06:04:00,
2013-01-16 23:09:00,30.0,16.6,30.37,West,270,9.0,13.0,57,0.00,,,-99.99,Weather View 32 v70,2013-01-17 06:09:00,
2013-01-16 23:14:00,30.0,17.0,30.38,West,270,8.0,13.0,58,0.00,,,-99.99,Weather View 32 v70,2013-01-17 06:14:00,
2013-01-16 23:19:00,30.0,17.0,30.38,WNW,292,5.0,15.0,58,0.00,,,-99.99,Weather View 32 v70,2013-01-17 06:19:00,
2013-01-16 23:24:00,30.0,17.0,30.38,West,270,4.0,15.0,58,0.00,,,-99.99,Weather View 32 v70,2013-01-17 06:24:00,
2013-01-16 23:29:00,29.0,16.8,30.38,West,270,3.0,15.0,60,0.00,,,-99.99,Weather View 32 v70,2013-01-17 06:29:00,
2013-01-16 23:34:00,28.0,16.3,30.38,NW,315,1.0,15.0,61,0.00,,,-99.99,Weather View 32 v70,2013-01-17 06:34:00,
2013-01-16 23:44:00,26.0,15.1,30.39,NW,315,6.0,15.0,63,0.00,,,-99.99,Weather View 32 v70,2013-01-17 06:44:00,
2013-01-16 23:49:00,26.0,15.5,30.39,NW,315,5.0,15.0,64,0.00,,,-99.99,Weather View 32 v70,2013-01-17 06:49:00,
2013-01-16 23:54:00,25.0,14.5,30.39,NNE,22,5.0,15.0,64,0.00,,,-99.99,Weather View 32 v70,2013-01-17 06:54:00,
2013-01-16 23:59:00,24.0,14.3,30.39,NE,45,5.0,15.0,66,0.00,,,-99.99,Weather View 32 v70,2013-01-17 06:59:00,